sensor_id;sensor_type;location;lat;lon;timestamp;temperature;humidity
47773;DHT22;33534;51.028;13.716;2023-07-29T07:39:49;36.60;32.90
47773;DHT22;33534;51.028;13.716;2023-07-29T07:42:15;37.20;32.40
47773;DHT22;33534;51.028;13.716;2023-07-29T07:44:40;38.00;30.70
47773;DHT22;33534;51.028;13.716;2023-07-29T07:49:32;34.20;35.30
47773;DHT22;33534;51.028;13.716;2023-07-29T07:51:58;33.10;37.20
47773;DHT22;33534;51.028;13.716;2023-07-29T07:56:49;30.70;42.80
47773;DHT22;33534;51.028;13.716;2023-07-29T07:59:15;30.30;43.40
47773;DHT22;33534;51.028;13.716;2023-07-29T08:01:40;30.00;44.00
47773;DHT22;33534;51.028;13.716;2023-07-29T08:04:06;30.30;43.90
47773;DHT22;33534;51.028;13.716;2023-07-29T08:06:32;30.40;43.30
47773;DHT22;33534;51.028;13.716;2023-07-29T08:08:58;30.40;43.70
47773;DHT22;33534;51.028;13.716;2023-07-29T08:11:24;30.20;43.30
47773;DHT22;33534;51.028;13.716;2023-07-29T08:13:50;30.00;44.20
47773;DHT22;33534;51.028;13.716;2023-07-29T08:28:34;32.40;40.20
47773;DHT22;33534;51.028;13.716;2023-07-29T08:31:00;32.80;37.60
47773;DHT22;33534;51.028;13.716;2023-07-29T08:33:27;32.20;38.50
47773;DHT22;33534;51.028;13.716;2023-07-29T08:35:52;32.20;38.90
47773;DHT22;33534;51.028;13.716;2023-07-29T08:38:18;32.80;37.30
47773;DHT22;33534;51.028;13.716;2023-07-29T08:40:54;33.50;35.80
47773;DHT22;33534;51.028;13.716;2023-07-29T08:43:30;34.20;36.60
47773;DHT22;33534;51.028;13.716;2023-07-29T08:45:57;35.30;33.80
47773;DHT22;33534;51.028;13.716;2023-07-29T08:48:41;34.90;33.90
47773;DHT22;33534;51.028;13.716;2023-07-29T08:51:08;34.50;34.30
47773;DHT22;33534;51.028;13.716;2023-07-29T08:53:35;34.10;35.90
47773;DHT22;33534;51.028;13.716;2023-07-29T08:56:01;34.00;35.30
47773;DHT22;33534;51.028;13.716;2023-07-29T08:58:27;34.00;35.30
47773;DHT22;33534;51.028;13.716;2023-07-29T09:00:53;33.90;36.30
47773;DHT22;33534;51.028;13.716;2023-07-29T09:03:20;33.40;37.30
47773;DHT22;33534;51.028;13.716;2023-07-29T09:05:46;32.80;37.30
47773;DHT22;33534;51.028;13.716;2023-07-29T09:08:12;32.20;38.80
47773;DHT22;33534;51.028;13.716;2023-07-29T11:17:32;28.50;60.40
47773;DHT22;33534;51.028;13.716;2023-07-29T11:20:03;28.70;57.80
47773;DHT22;33534;51.028;13.716;2023-07-29T11:22:30;29.00;56.50
47773;DHT22;33534;51.028;13.716;2023-07-29T11:25:01;28.90;55.70
47773;DHT22;33534;51.028;13.716;2023-07-29T11:27:26;28.80;54.80
47773;DHT22;33534;51.028;13.716;2023-07-29T11:30:07;28.50;54.40
47773;DHT22;33534;51.028;13.716;2023-07-29T11:32:37;28.00;56.40
47773;DHT22;33534;51.028;13.716;2023-07-29T11:35:13;27.70;58.80
47773;DHT22;33534;51.028;13.716;2023-07-29T11:37:41;27.40;59.50
47773;DHT22;33534;51.028;13.716;2023-07-29T11:40:08;27.50;59.70
47773;DHT22;33534;51.028;13.716;2023-07-29T11:42:36;27.70;59.20
47773;DHT22;33534;51.028;13.716;2023-07-29T11:45:02;28.20;58.60
47773;DHT22;33534;51.028;13.716;2023-07-29T11:47:29;28.40;57.70
47773;DHT22;33534;51.028;13.716;2023-07-29T11:49:58;28.70;55.90
47773;DHT22;33534;51.028;13.716;2023-07-29T11:52:24;29.00;54.90
47773;DHT22;33534;51.028;13.716;2023-07-29T11:54:50;29.10;54.50
47773;DHT22;33534;51.028;13.716;2023-07-29T11:57:16;28.90;55.10
47773;DHT22;33534;51.028;13.716;2023-07-29T11:59:44;28.50;55.70
47773;DHT22;33534;51.028;13.716;2023-07-29T12:02:14;28.30;56.70
47773;DHT22;33534;51.028;13.716;2023-07-29T12:04:41;28.30;57.10
47773;DHT22;33534;51.028;13.716;2023-07-29T12:07:08;28.10;57.80
47773;DHT22;33534;51.028;13.716;2023-07-29T12:09:35;28.20;57.20
47773;DHT22;33534;51.028;13.716;2023-07-29T12:12:03;28.50;56.60
47773;DHT22;33534;51.028;13.716;2023-07-29T12:14:29;28.50;57.30
47773;DHT22;33534;51.028;13.716;2023-07-29T12:16:54;28.50;55.50
47773;DHT22;33534;51.028;13.716;2023-07-29T12:19:20;28.50;56.50
47773;DHT22;33534;51.028;13.716;2023-07-29T12:21:48;28.80;57.00
47773;DHT22;33534;51.028;13.716;2023-07-29T12:24:14;28.50;56.30
47773;DHT22;33534;51.028;13.716;2023-07-29T12:26:40;28.70;55.90
47773;DHT22;33534;51.028;13.716;2023-07-29T12:29:17;28.70;52.40
47773;DHT22;33534;51.028;13.716;2023-07-29T12:31:45;28.80;51.70
47773;DHT22;33534;51.028;13.716;2023-07-29T12:34:20;29.00;50.80
47773;DHT22;33534;51.028;13.716;2023-07-29T12:36:48;29.00;50.20
47773;DHT22;33534;51.028;13.716;2023-07-29T12:39:21;29.00;50.00
47773;DHT22;33534;51.028;13.716;2023-07-29T12:41:48;29.20;49.00
47773;DHT22;33534;51.028;13.716;2023-07-29T12:44:14;29.30;48.50
47773;DHT22;33534;51.028;13.716;2023-07-29T12:46:40;29.40;48.30
